sensor_id;sensor_type;location;lat;lon;timestamp;pressure;altitude;pressure_sealevel;temperature;humidity
41044;BME280;51680;49.806;18.774;2024-01-15T00:02:10;95596.31;;;3.06;66.67
41044;BME280;51680;49.806;18.774;2024-01-15T00:05:12;95577.38;;;3.07;66.66
41044;BME280;51680;49.806;18.774;2024-01-15T00:08:22;95588.56;;;3.06;66.55
41044;BME280;51680;49.806;18.774;2024-01-15T00:11:26;95586.94;;;3.05;66.00
41044;BME280;51680;49.806;18.774;2024-01-15T00:14:28;95578.88;;;2.97;64.53
41044;BME280;51680;49.806;18.774;2024-01-15T00:17:32;95567.56;;;3.00;65.95
41044;BME280;51680;49.806;18.774;2024-01-15T00:20:34;95567.66;;;2.98;66.12
41044;BME280;51680;49.806;18.774;2024-01-15T00:23:36;95555.69;;;2.97;66.31
41044;BME280;51680;49.806;18.774;2024-01-15T00:26:39;95555.03;;;2.94;66.86
41044;BME280;51680;49.806;18.774;2024-01-15T00:29:42;95554.81;;;2.84;67.17
41044;BME280;51680;49.806;18.774;2024-01-15T00:32:44;95550.38;;;2.86;66.78
41044;BME280;51680;49.806;18.774;2024-01-15T00:35:46;95539.81;;;2.91;66.61
41044;BME280;51680;49.806;18.774;2024-01-15T00:38:48;95545.66;;;2.93;66.58
41044;BME280;51680;49.806;18.774;2024-01-15T00:41:51;95553.84;;;2.73;66.38
41044;BME280;51680;49.806;18.774;2024-01-15T00:44:53;95556.84;;;2.79;66.55
41044;BME280;51680;49.806;18.774;2024-01-15T00:47:56;95544.28;;;2.87;66.64
41044;BME280;51680;49.806;18.774;2024-01-15T00:51:00;95552.38;;;2.95;66.40
41044;BME280;51680;49.806;18.774;2024-01-15T00:54:02;95553.66;;;3.02;66.33
41044;BME280;51680;49.806;18.774;2024-01-15T00:57:05;95556.53;;;3.10;66.22
41044;BME280;51680;49.806;18.774;2024-01-15T01:00:08;95546.06;;;3.13;65.90
41044;BME280;51680;49.806;18.774;2024-01-15T01:03:10;95544.19;;;3.15;65.90
41044;BME280;51680;49.806;18.774;2024-01-15T01:06:12;95525.72;;;3.09;66.01
41044;BME280;51680;49.806;18.774;2024-01-15T01:09:14;95526.03;;;3.04;66.49
41044;BME280;51680;49.806;18.774;2024-01-15T01:12:18;95532.09;;;3.03;65.62
41044;BME280;51680;49.806;18.774;2024-01-15T01:15:20;95521.91;;;3.02;65.81
41044;BME280;51680;49.806;18.774;2024-01-15T01:18:22;95525.84;;;3.07;66.31
41044;BME280;51680;49.806;18.774;2024-01-15T01:21:23;95527.44;;;2.96;65.59
41044;BME280;51680;49.806;18.774;2024-01-15T01:24:25;95532.78;;;2.93;66.18
41044;BME280;51680;49.806;18.774;2024-01-15T01:27:29;95511.75;;;2.86;66.77
41044;BME280;51680;49.806;18.774;2024-01-15T01:30:31;95515.75;;;2.78;66.99
41044;BME280;51680;49.806;18.774;2024-01-15T01:33:33;95507.09;;;2.79;67.55
41044;BME280;51680;49.806;18.774;2024-01-15T01:36:34;95502.03;;;2.77;67.38
41044;BME280;51680;49.806;18.774;2024-01-15T01:39:36;95492.34;;;2.68;67.78
41044;BME280;51680;49.806;18.774;2024-01-15T01:42:40;95478.19;;;2.61;67.90
41044;BME280;51680;49.806;18.774;2024-01-15T01:45:42;95486.09;;;2.58;67.76
41044;BME280;51680;49.806;18.774;2024-01-15T01:48:44;95484.66;;;2.54;68.11
41044;BME280;51680;49.806;18.774;2024-01-15T01:51:46;95471.88;;;2.53;68.14
41044;BME280;51680;49.806;18.774;2024-01-15T01:54:49;95455.41;;;2.55;68.17
41044;BME280;51680;49.806;18.774;2024-01-15T01:57:54;95458.78;;;2.56;67.75
41044;BME280;51680;49.806;18.774;2024-01-15T02:00:57;95453.56;;;2.57;67.88
41044;BME280;51680;49.806;18.774;2024-01-15T02:04:00;95451.72;;;2.59;68.13
41044;BME280;51680;49.806;18.774;2024-01-15T02:07:02;95446.97;;;2.66;68.14
41044;BME280;51680;49.806;18.774;2024-01-15T02:10:05;95450.19;;;2.69;67.70
41044;BME280;51680;49.806;18.774;2024-01-15T02:13:09;95441.28;;;2.61;67.27
41044;BME280;51680;49.806;18.774;2024-01-15T02:16:11;95450.78;;;2.60;67.77
41044;BME280;51680;49.806;18.774;2024-01-15T02:19:15;95449.03;;;2.61;67.79
41044;BME280;51680;49.806;18.774;2024-01-15T02:22:17;95450.03;;;2.58;67.19
41044;BME280;51680;49.806;18.774;2024-01-15T02:25:21;95441.03;;;2.65;67.70
41044;BME280;51680;49.806;18.774;2024-01-15T02:28:23;95444.72;;;2.61;67.24
41044;BME280;51680;49.806;18.774;2024-01-15T02:31:25;95441.63;;;2.69;67.84
41044;BME280;51680;49.806;18.774;2024-01-15T02:34:31;95430.72;;;2.65;66.64
41044;BME280;51680;49.806;18.774;2024-01-15T02:37:33;95434.94;;;2.66;67.51
41044;BME280;51680;49.806;18.774;2024-01-15T02:40:38;95427.22;;;2.66;67.31
41044;BME280;51680;49.806;18.774;2024-01-15T02:43:40;95418.06;;;2.75;67.25
41044;BME280;51680;49.806;18.774;2024-01-15T02:46:42;95413.44;;;2.80;67.05
41044;BME280;51680;49.806;18.774;2024-01-15T02:49:44;95407.03;;;2.73;66.13
41044;BME280;51680;49.806;18.774;2024-01-15T02:52:46;95413.66;;;2.77;66.96
41044;BME280;51680;49.806;18.774;2024-01-15T02:55:50;95415.09;;;2.81;66.70
41044;BME280;51680;49.806;18.774;2024-01-15T02:58:52;95407.47;;;2.79;67.21
41044;BME280;51680;49.806;18.774;2024-01-15T03:01:54;95401.56;;;2.77;66.65
41044;BME280;51680;49.806;18.774;2024-01-15T03:04:56;95410.97;;;2.78;66.74
41044;BME280;51680;49.806;18.774;2024-01-15T03:07:58;95405.59;;;2.81;66.73
41044;BME280;51680;49.806;18.774;2024-01-15T03:11:01;95391.78;;;2.82;66.34
41044;BME280;51680;49.806;18.774;2024-01-15T03:14:03;95400.38;;;2.83;66.97
41044;BME280;51680;49.806;18.774;2024-01-15T03:17:06;95396.44;;;2.77;66.78
41044;BME280;51680;49.806;18.774;2024-01-15T03:20:10;95392.00;;;2.67;66.72
41044;BME280;51680;49.806;18.774;2024-01-15T03:23:13;95384.44;;;2.51;66.42
41044;BME280;51680;49.806;18.774;2024-01-15T03:26:16;95376.66;;;2.65;66.29
41044;BME280;51680;49.806;18.774;2024-01-15T03:29:18;95380.59;;;2.71;66.32
41044;BME280;51680;49.806;18.774;2024-01-15T03:32:20;95377.69;;;2.75;65.78
41044;BME280;51680;49.806;18.774;2024-01-15T03:35:22;95380.25;;;2.75;65.71
41044;BME280;51680;49.806;18.774;2024-01-15T03:38:24;95378.91;;;2.82;65.45
41044;BME280;51680;49.806;18.774;2024-01-15T03:41:27;95370.06;;;2.86;65.01
41044;BME280;51680;49.806;18.774;2024-01-15T03:44:29;95375.97;;;2.88;64.75
41044;BME280;51680;49.806;18.774;2024-01-15T03:47:31;95358.44;;;2.93;65.04
41044;BME280;51680;49.806;18.774;2024-01-15T03:50:34;95360.94;;;2.95;64.72
41044;BME280;51680;49.806;18.774;2024-01-15T03:53:37;95354.22;;;2.92;64.29
41044;BME280;51680;49.806;18.774;2024-01-15T03:56:59;95333.19;;;2.98;64.75
41044;BME280;51680;49.806;18.774;2024-01-15T04:00:02;95344.63;;;2.94;64.87
41044;BME280;51680;49.806;18.774;2024-01-15T04:03:05;95349.19;;;2.91;64.75
41044;BME280;51680;49.806;18.774;2024-01-15T04:06:08;95331.84;;;2.93;64.71
41044;BME280;51680;49.806;18.774;2024-01-15T04:09:12;95345.06;;;2.88;64.55
41044;BME280;51680;49.806;18.774;2024-01-15T04:12:15;95344.63;;;2.82;64.57
41044;BME280;51680;49.806;18.774;2024-01-15T04:15:17;95334.44;;;2.80;64.69
41044;BME280;51680;49.806;18.774;2024-01-15T04:18:19;95329.78;;;2.85;64.50
41044;BME280;51680;49.806;18.774;2024-01-15T04:21:21;95348.13;;;2.93;64.85
41044;BME280;51680;49.806;18.774;2024-01-15T04:24:23;95347.72;;;2.99;64.64
41044;BME280;51680;49.806;18.774;2024-01-15T04:27:26;95345.84;;;3.01;64.42
41044;BME280;51680;49.806;18.774;2024-01-15T04:30:28;95337.94;;;3.04;64.18
41044;BME280;51680;49.806;18.774;2024-01-15T04:33:49;95333.81;;;3.02;64.31
41044;BME280;51680;49.806;18.774;2024-01-15T04:36:51;95328.22;;;3.08;64.19
41044;BME280;51680;49.806;18.774;2024-01-15T04:39:53;95333.28;;;3.09;64.23
41044;BME280;51680;49.806;18.774;2024-01-15T04:42:57;95343.69;;;3.08;64.49
41044;BME280;51680;49.806;18.774;2024-01-15T04:45:59;95340.00;;;3.12;64.37
41044;BME280;51680;49.806;18.774;2024-01-15T04:49:01;95326.25;;;3.11;64.53
41044;BME280;51680;49.806;18.774;2024-01-15T04:52:03;95326.69;;;3.05;64.38
41044;BME280;51680;49.806;18.774;2024-01-15T04:55:05;95323.19;;;3.06;65.44
41044;BME280;51680;49.806;18.774;2024-01-15T04:58:08;95313.72;;;3.07;65.22
41044;BME280;51680;49.806;18.774;2024-01-15T05:01:10;95298.69;;;3.01;65.43
41044;BME280;51680;49.806;18.774;2024-01-15T05:04:12;95279.53;;;2.92;65.76
41044;BME280;51680;49.806;18.774;2024-01-15T05:07:14;95295.78;;;2.80;65.27
41044;BME280;51680;49.806;18.774;2024-01-15T05:10:16;95298.88;;;2.85;65.33
41044;BME280;51680;49.806;18.774;2024-01-15T05:13:20;95297.25;;;2.84;65.02
41044;BME280;51680;49.806;18.774;2024-01-15T05:16:22;95285.59;;;2.79;65.39
41044;BME280;51680;49.806;18.774;2024-01-15T05:19:24;95273.97;;;2.73;65.53
41044;BME280;51680;49.806;18.774;2024-01-15T05:22:25;95269.22;;;2.67;65.51
41044;BME280;51680;49.806;18.774;2024-01-15T05:25:27;95264.28;;;2.64;64.83
41044;BME280;51680;49.806;18.774;2024-01-15T05:28:31;95261.56;;;2.66;65.78
41044;BME280;51680;49.806;18.774;2024-01-15T05:31:33;95253.84;;;2.66;65.34
41044;BME280;51680;49.806;18.774;2024-01-15T05:34:35;95240.19;;;2.65;65.16
41044;BME280;51680;49.806;18.774;2024-01-15T05:37:37;95239.16;;;2.68;65.51
41044;BME280;51680;49.806;18.774;2024-01-15T05:40:38;95238.81;;;2.72;65.26
41044;BME280;51680;49.806;18.774;2024-01-15T05:43:42;95248.22;;;2.73;64.96
41044;BME280;51680;49.806;18.774;2024-01-15T05:46:44;95244.72;;;2.74;64.82
41044;BME280;51680;49.806;18.774;2024-01-15T05:49:45;95256.44;;;2.78;64.78
41044;BME280;51680;49.806;18.774;2024-01-15T05:53:06;95246.34;;;2.75;65.04
41044;BME280;51680;49.806;18.774;2024-01-15T05:56:09;95244.72;;;2.74;64.52
41044;BME280;51680;49.806;18.774;2024-01-15T05:59:13;95220.50;;;2.64;64.11
41044;BME280;51680;49.806;18.774;2024-01-15T06:02:14;95245.22;;;2.79;65.05
41044;BME280;51680;49.806;18.774;2024-01-15T06:05:16;95252.31;;;2.88;64.94
41044;BME280;51680;49.806;18.774;2024-01-15T06:08:18;95245.91;;;2.94;64.85
41044;BME280;51680;49.806;18.774;2024-01-15T06:11:21;95252.50;;;2.98;64.69
41044;BME280;51680;49.806;18.774;2024-01-15T06:14:24;95248.38;;;2.95;64.81
41044;BME280;51680;49.806;18.774;2024-01-15T06:17:26;95244.19;;;2.82;64.58
41044;BME280;51680;49.806;18.774;2024-01-15T06:20:28;95235.53;;;2.83;64.60
41044;BME280;51680;49.806;18.774;2024-01-15T06:23:30;95236.34;;;2.83;64.60
41044;BME280;51680;49.806;18.774;2024-01-15T06:26:32;95247.38;;;2.85;65.05
41044;BME280;51680;49.806;18.774;2024-01-15T06:29:37;95260.44;;;2.82;64.42
41044;BME280;51680;49.806;18.774;2024-01-15T06:32:39;95259.22;;;2.88;65.02
41044;BME280;51680;49.806;18.774;2024-01-15T06:35:41;95269.63;;;2.86;64.77
41044;BME280;51680;49.806;18.774;2024-01-15T06:38:43;95259.84;;;2.79;64.94
41044;BME280;51680;49.806;18.774;2024-01-15T06:41:45;95272.94;;;2.76;65.16
41044;BME280;51680;49.806;18.774;2024-01-15T06:44:48;95280.94;;;2.71;65.56
41044;BME280;51680;49.806;18.774;2024-01-15T06:47:50;95282.09;;;2.67;65.59
41044;BME280;51680;49.806;18.774;2024-01-15T06:50:52;95289.09;;;2.65;66.04
41044;BME280;51680;49.806;18.774;2024-01-15T06:54:13;95274.34;;;2.55;66.04
41044;BME280;51680;49.806;18.774;2024-01-15T06:57:15;95280.34;;;2.55;66.23
41044;BME280;51680;49.806;18.774;2024-01-15T07:00:18;95277.03;;;2.53;66.12
41044;BME280;51680;49.806;18.774;2024-01-15T07:03:20;95283.00;;;2.41;66.71
41044;BME280;51680;49.806;18.774;2024-01-15T07:06:23;95274.53;;;2.39;66.72
41044;BME280;51680;49.806;18.774;2024-01-15T07:09:24;95291.44;;;2.43;66.51
41044;BME280;51680;49.806;18.774;2024-01-15T07:12:26;95294.34;;;2.51;66.39
41044;BME280;51680;49.806;18.774;2024-01-15T07:15:30;95291.44;;;2.43;66.78
41044;BME280;51680;49.806;18.774;2024-01-15T07:18:32;95282.06;;;2.42;66.83
41044;BME280;51680;49.806;18.774;2024-01-15T07:21:34;95298.44;;;2.41;66.89
41044;BME280;51680;49.806;18.774;2024-01-15T07:24:36;95308.53;;;2.44;66.55
41044;BME280;51680;49.806;18.774;2024-01-15T07:27:38;95294.50;;;2.23;66.91
41044;BME280;51680;49.806;18.774;2024-01-15T07:30:41;95300.50;;;2.36;66.75
41044;BME280;51680;49.806;18.774;2024-01-15T07:33:43;95308.53;;;2.44;66.35
41044;BME280;51680;49.806;18.774;2024-01-15T07:36:45;95294.53;;;2.48;65.84
41044;BME280;51680;49.806;18.774;2024-01-15T07:39:46;95300.31;;;2.52;66.30
41044;BME280;51680;49.806;18.774;2024-01-15T07:42:48;95309.38;;;2.57;66.01
41044;BME280;51680;49.806;18.774;2024-01-15T07:45:52;95313.91;;;2.54;65.43
41044;BME280;51680;49.806;18.774;2024-01-15T07:48:53;95329.44;;;2.52;65.32
41044;BME280;51680;49.806;18.774;2024-01-15T07:51:56;95331.59;;;2.58;65.41
41044;BME280;51680;49.806;18.774;2024-01-15T07:54:58;95330.19;;;2.54;65.07
41044;BME280;51680;49.806;18.774;2024-01-15T07:58:01;95324.63;;;2.48;65.10
41044;BME280;51680;49.806;18.774;2024-01-15T08:01:05;95333.66;;;2.53;64.97
41044;BME280;51680;49.806;18.774;2024-01-15T08:04:07;95380.88;;;2.66;64.52
41044;BME280;51680;49.806;18.774;2024-01-15T08:07:09;95398.09;;;2.78;64.62
41044;BME280;51680;49.806;18.774;2024-01-15T08:10:11;95403.03;;;2.81;64.45
41044;BME280;51680;49.806;18.774;2024-01-15T08:13:14;95397.88;;;2.81;64.11
41044;BME280;51680;49.806;18.774;2024-01-15T08:16:17;95389.75;;;2.87;63.67
41044;BME280;51680;49.806;18.774;2024-01-15T08:19:19;95386.44;;;2.85;63.88
41044;BME280;51680;49.806;18.774;2024-01-15T08:22:21;95400.59;;;2.92;63.87
41044;BME280;51680;49.806;18.774;2024-01-15T08:25:24;95411.72;;;2.93;64.04
41044;BME280;51680;49.806;18.774;2024-01-15T08:28:26;95413.88;;;2.99;63.93
41044;BME280;51680;49.806;18.774;2024-01-15T08:31:29;95391.94;;;2.93;63.50
41044;BME280;51680;49.806;18.774;2024-01-15T08:34:34;95402.94;;;2.95;63.59
41044;BME280;51680;49.806;18.774;2024-01-15T08:37:36;95406.88;;;2.88;63.43
41044;BME280;51680;49.806;18.774;2024-01-15T08:40:38;95404.41;;;2.99;63.25
41044;BME280;51680;49.806;18.774;2024-01-15T08:43:40;95387.72;;;3.05;62.82
41044;BME280;51680;49.806;18.774;2024-01-15T08:46:44;95383.97;;;2.96;63.05
41044;BME280;51680;49.806;18.774;2024-01-15T08:49:45;95387.91;;;2.89;62.98
41044;BME280;51680;49.806;18.774;2024-01-15T08:52:47;95399.97;;;3.01;63.04
41044;BME280;51680;49.806;18.774;2024-01-15T08:55:49;95382.97;;;3.11;63.08
41044;BME280;51680;49.806;18.774;2024-01-15T08:58:51;95399.25;;;3.12;62.37
41044;BME280;51680;49.806;18.774;2024-01-15T09:01:55;95396.34;;;3.04;62.42
41044;BME280;51680;49.806;18.774;2024-01-15T09:04:57;95398.97;;;3.16;62.72
41044;BME280;51680;49.806;18.774;2024-01-15T09:08:00;95409.06;;;3.19;62.14
41044;BME280;51680;49.806;18.774;2024-01-15T09:11:02;95413.91;;;3.36;62.35
41044;BME280;51680;49.806;18.774;2024-01-15T09:14:04;95400.91;;;3.50;61.67
41044;BME280;51680;49.806;18.774;2024-01-15T09:17:12;95402.13;;;3.57;60.82
41044;BME280;51680;49.806;18.774;2024-01-15T09:20:15;95408.94;;;3.58;60.95
41044;BME280;51680;49.806;18.774;2024-01-15T09:23:17;95400.06;;;3.62;62.09
41044;BME280;51680;49.806;18.774;2024-01-15T09:26:19;95401.31;;;3.57;61.58
41044;BME280;51680;49.806;18.774;2024-01-15T09:29:21;95404.00;;;3.55;61.74
41044;BME280;51680;49.806;18.774;2024-01-15T09:32:25;95409.56;;;3.49;61.22
41044;BME280;51680;49.806;18.774;2024-01-15T09:35:27;95409.38;;;3.40;61.89
41044;BME280;51680;49.806;18.774;2024-01-15T09:38:29;95406.06;;;3.50;61.65
41044;BME280;51680;49.806;18.774;2024-01-15T09:41:32;95407.91;;;3.36;61.62
41044;BME280;51680;49.806;18.774;2024-01-15T09:44:34;95407.91;;;3.36;61.60
41044;BME280;51680;49.806;18.774;2024-01-15T09:47:38;95409.78;;;3.46;61.71
41044;BME280;51680;49.806;18.774;2024-01-15T09:51:06;95410.50;;;3.23;61.01
41044;BME280;51680;49.806;18.774;2024-01-15T09:54:09;95413.16;;;3.22;62.04
41044;BME280;51680;49.806;18.774;2024-01-15T09:57:11;95413.41;;;3.19;62.30
41044;BME280;51680;49.806;18.774;2024-01-15T10:00:14;95408.75;;;3.24;62.06
41044;BME280;51680;49.806;18.774;2024-01-15T10:03:20;95419.47;;;3.30;62.03
41044;BME280;51680;49.806;18.774;2024-01-15T10:06:22;95424.41;;;3.21;62.62
41044;BME280;51680;49.806;18.774;2024-01-15T10:09:24;95413.88;;;3.11;62.69
41044;BME280;51680;49.806;18.774;2024-01-15T10:12:26;95418.84;;;3.14;62.27
41044;BME280;51680;49.806;18.774;2024-01-15T10:15:28;95420.09;;;3.21;63.01
41044;BME280;51680;49.806;18.774;2024-01-15T10:18:32;95422.44;;;3.24;62.35
41044;BME280;51680;49.806;18.774;2024-01-15T10:21:34;95406.69;;;3.16;62.33
41044;BME280;51680;49.806;18.774;2024-01-15T10:24:36;95413.06;;;3.23;62.69
41044;BME280;51680;49.806;18.774;2024-01-15T10:27:39;95398.41;;;3.11;61.90
41044;BME280;51680;49.806;18.774;2024-01-15T10:30:41;95389.38;;;3.06;62.19
41044;BME280;51680;49.806;18.774;2024-01-15T10:33:45;95378.31;;;4.02;60.52
41044;BME280;51680;49.806;18.774;2024-01-15T10:36:47;95362.78;;;6.38;56.48
41044;BME280;51680;49.806;18.774;2024-01-15T10:39:53;95373.63;;;6.95;53.86
41044;BME280;51680;49.806;18.774;2024-01-15T10:42:55;95368.66;;;6.51;53.87
41044;BME280;51680;49.806;18.774;2024-01-15T10:45:57;95389.38;;;5.86;53.99
41044;BME280;51680;49.806;18.774;2024-01-15T10:49:00;95403.19;;;5.30;56.00
41044;BME280;51680;49.806;18.774;2024-01-15T10:52:03;95402.03;;;4.78;56.93
41044;BME280;51680;49.806;18.774;2024-01-15T10:55:07;95407.38;;;4.64;57.24
41044;BME280;51680;49.806;18.774;2024-01-15T10:58:09;95419.19;;;4.32;55.98
41044;BME280;51680;49.806;18.774;2024-01-15T11:01:12;95419.44;;;4.16;58.19
41044;BME280;51680;49.806;18.774;2024-01-15T11:04:16;95428.25;;;4.01;58.42
41044;BME280;51680;49.806;18.774;2024-01-15T11:07:21;95431.59;;;3.78;58.82
41044;BME280;51680;49.806;18.774;2024-01-15T11:10:40;95415.59;;;3.73;59.58
41044;BME280;51680;49.806;18.774;2024-01-15T11:13:43;95408.72;;;3.74;60.00
41044;BME280;51680;49.806;18.774;2024-01-15T11:16:55;95408.69;;;3.86;58.98
41044;BME280;51680;49.806;18.774;2024-01-15T11:20:05;95403.59;;;3.97;58.93
41044;BME280;51680;49.806;18.774;2024-01-15T11:23:08;95393.78;;;4.02;59.40
41044;BME280;51680;49.806;18.774;2024-01-15T11:26:32;95398.47;;;4.21;58.70
41044;BME280;51680;49.806;18.774;2024-01-15T16:04:08;95406.94;;;2.74;63.29
41044;BME280;51680;49.806;18.774;2024-01-15T16:07:10;95408.78;;;2.72;63.75
41044;BME280;51680;49.806;18.774;2024-01-15T16:10:12;95409.00;;;2.69;63.63
41044;BME280;51680;49.806;18.774;2024-01-15T16:13:14;95415.28;;;2.65;63.37
41044;BME280;51680;49.806;18.774;2024-01-15T16:16:17;95414.97;;;2.70;63.41
41044;BME280;51680;49.806;18.774;2024-01-15T16:19:20;95420.00;;;2.71;63.32
41044;BME280;51680;49.806;18.774;2024-01-15T16:22:23;95412.16;;;2.60;63.38
41044;BME280;51680;49.806;18.774;2024-01-15T16:25:26;95418.78;;;2.64;63.56
41044;BME280;51680;49.806;18.774;2024-01-15T16:28:28;95413.22;;;2.70;63.58
41044;BME280;51680;49.806;18.774;2024-01-15T16:31:30;95422.19;;;2.77;63.41
41044;BME280;51680;49.806;18.774;2024-01-15T16:34:34;95415.91;;;2.81;63.29
41044;BME280;51680;49.806;18.774;2024-01-15T16:37:36;95424.56;;;2.80;63.19
41044;BME280;51680;49.806;18.774;2024-01-15T16:40:38;95422.72;;;2.82;63.36
41044;BME280;51680;49.806;18.774;2024-01-15T16:43:40;95417.28;;;2.87;63.84
41044;BME280;51680;49.806;18.774;2024-01-15T16:46:42;95414.59;;;2.88;63.61
41044;BME280;51680;49.806;18.774;2024-01-15T16:49:45;95426.56;;;2.89;63.53
41044;BME280;51680;49.806;18.774;2024-01-15T16:52:47;95423.78;;;2.92;63.60
41044;BME280;51680;49.806;18.774;2024-01-15T16:55:51;95420.66;;;2.87;63.58
41044;BME280;51680;49.806;18.774;2024-01-15T16:58:53;95427.66;;;2.85;63.88
41044;BME280;51680;49.806;18.774;2024-01-15T17:01:55;95426.75;;;2.86;63.62
41044;BME280;51680;49.806;18.774;2024-01-15T17:04:59;95434.91;;;2.93;63.95
41044;BME280;51680;49.806;18.774;2024-01-15T17:08:01;95427.25;;;2.91;64.08
41044;BME280;51680;49.806;18.774;2024-01-15T17:11:03;95429.03;;;2.91;63.96
41044;BME280;51680;49.806;18.774;2024-01-15T17:14:05;95426.03;;;2.84;64.13
41044;BME280;51680;49.806;18.774;2024-01-15T17:17:07;95427.84;;;2.82;64.11
41044;BME280;51680;49.806;18.774;2024-01-15T17:20:11;95431.38;;;2.81;64.61
41044;BME280;51680;49.806;18.774;2024-01-15T17:23:13;95427.22;;;2.66;64.65
41044;BME280;51680;49.806;18.774;2024-01-15T17:26:15;95425.38;;;2.68;64.46
41044;BME280;51680;49.806;18.774;2024-01-15T17:29:17;95426.38;;;2.66;64.93
41044;BME280;51680;49.806;18.774;2024-01-15T17:32:21;95421.88;;;2.69;64.73
41044;BME280;51680;49.806;18.774;2024-01-15T17:35:24;95418.78;;;2.64;64.68
41044;BME280;51680;49.806;18.774;2024-01-15T17:38:27;95429.88;;;2.65;64.62
41044;BME280;51680;49.806;18.774;2024-01-15T17:41:29;95429.69;;;2.68;64.49
41044;BME280;51680;49.806;18.774;2024-01-15T17:44:33;95427.22;;;2.66;64.83
41044;BME280;51680;49.806;18.774;2024-01-15T17:47:35;95427.72;;;2.59;64.88
41044;BME280;51680;49.806;18.774;2024-01-15T17:50:39;95433.16;;;2.54;64.90
41044;BME280;51680;49.806;18.774;2024-01-15T17:53:41;95443.47;;;2.54;65.08
41044;BME280;51680;49.806;18.774;2024-01-15T17:56:43;95435.00;;;2.52;64.94
41044;BME280;51680;49.806;18.774;2024-01-15T17:59:45;95443.25;;;2.57;64.79
41044;BME280;51680;49.806;18.774;2024-01-15T18:02:46;95441.78;;;2.53;65.24
41044;BME280;51680;49.806;18.774;2024-01-15T18:05:50;95431.50;;;2.53;65.28
41044;BME280;51680;49.806;18.774;2024-01-15T18:08:52;95440.44;;;2.48;65.00
41044;BME280;51680;49.806;18.774;2024-01-15T18:11:54;95449.78;;;2.36;65.65
41044;BME280;51680;49.806;18.774;2024-01-15T18:15:01;95444.63;;;2.36;65.83
41044;BME280;51680;49.806;18.774;2024-01-15T18:18:03;95445.06;;;2.43;65.56
41044;BME280;51680;49.806;18.774;2024-01-15T18:21:06;95447.63;;;2.43;65.74
41044;BME280;51680;49.806;18.774;2024-01-15T18:24:08;95449.19;;;2.45;65.76
41044;BME280;51680;49.806;18.774;2024-01-15T18:27:11;95459.28;;;2.48;65.42
41044;BME280;51680;49.806;18.774;2024-01-15T18:30:15;95457.44;;;2.50;65.58
41044;BME280;51680;49.806;18.774;2024-01-15T18:33:20;95451.03;;;2.43;65.52
41044;BME280;51680;49.806;18.774;2024-01-15T18:36:24;95448.75;;;2.39;65.82
41044;BME280;51680;49.806;18.774;2024-01-15T18:39:27;95442.38;;;2.44;65.62
41044;BME280;51680;49.806;18.774;2024-01-15T18:42:29;95455.53;;;2.40;65.49
41044;BME280;51680;49.806;18.774;2024-01-15T18:45:31;95467.41;;;2.42;65.53
41044;BME280;51680;49.806;18.774;2024-01-15T18:48:33;95459.84;;;2.39;65.96
41044;BME280;51680;49.806;18.774;2024-01-15T18:51:38;95449.78;;;2.36;65.84
41044;BME280;51680;49.806;18.774;2024-01-15T18:54:45;95448.84;;;2.37;65.71
41044;BME280;51680;49.806;18.774;2024-01-15T18:58:15;95454.91;;;2.36;65.79
41044;BME280;51680;49.806;18.774;2024-01-15T19:01:28;95450.88;;;2.32;66.15
41044;BME280;51680;49.806;18.774;2024-01-15T19:04:33;95459.63;;;2.30;66.03
41044;BME280;51680;49.806;18.774;2024-01-15T19:07:41;95463.31;;;2.26;66.04
41044;BME280;51680;49.806;18.774;2024-01-15T19:10:46;95480.66;;;2.36;65.96
41044;BME280;51680;49.806;18.774;2024-01-15T19:13:49;95472.94;;;2.36;65.90
41044;BME280;51680;49.806;18.774;2024-01-15T19:16:51;95472.00;;;2.37;65.93
41044;BME280;51680;49.806;18.774;2024-01-15T19:19:56;95467.56;;;2.39;65.75
41044;BME280;51680;49.806;18.774;2024-01-15T19:37:29;95487.38;;;2.39;65.70
41044;BME280;51680;49.806;18.774;2024-01-15T19:40:30;95482.69;;;2.31;65.63
41044;BME280;51680;49.806;18.774;2024-01-15T19:43:36;95486.34;;;2.41;65.57
41044;BME280;51680;49.806;18.774;2024-01-15T19:46:38;95481.38;;;2.38;65.03
41044;BME280;51680;49.806;18.774;2024-01-15T19:49:40;95484.88;;;2.37;65.08
41044;BME280;51680;49.806;18.774;2024-01-15T19:52:48;95498.19;;;2.44;65.04
41044;BME280;51680;49.806;18.774;2024-01-15T19:55:50;95507.13;;;2.38;65.09
41044;BME280;51680;49.806;18.774;2024-01-15T19:58:52;95508.66;;;2.41;64.90
41044;BME280;51680;49.806;18.774;2024-01-15T20:01:54;95502.72;;;2.40;64.99
41044;BME280;51680;49.806;18.774;2024-01-15T20:04:56;95506.63;;;2.46;65.03
41044;BME280;51680;49.806;18.774;2024-01-15T20:07:59;95508.41;;;2.45;64.71
41044;BME280;51680;49.806;18.774;2024-01-15T20:11:04;95514.28;;;2.33;64.17
41044;BME280;51680;49.806;18.774;2024-01-15T20:14:06;95514.13;;;2.22;64.79
41044;BME280;51680;49.806;18.774;2024-01-15T20:17:08;95519.09;;;2.25;64.63
41044;BME280;51680;49.806;18.774;2024-01-15T20:20:13;95519.28;;;2.22;64.69
41044;BME280;51680;49.806;18.774;2024-01-15T20:23:16;95524.59;;;2.19;64.99
41044;BME280;51680;49.806;18.774;2024-01-15T20:26:19;95517.75;;;2.06;65.33
41044;BME280;51680;49.806;18.774;2024-01-15T20:29:21;95524.34;;;2.10;65.19
41044;BME280;51680;49.806;18.774;2024-01-15T20:32:23;95539.50;;;2.14;65.34
41044;BME280;51680;49.806;18.774;2024-01-15T20:35:25;95530.53;;;2.07;65.66
41044;BME280;51680;49.806;18.774;2024-01-15T20:38:28;95540.72;;;2.09;65.58
41044;BME280;51680;49.806;18.774;2024-01-15T20:41:30;95544.31;;;2.06;65.87
41044;BME280;51680;49.806;18.774;2024-01-15T20:44:32;95539.41;;;2.02;65.68
41044;BME280;51680;49.806;18.774;2024-01-15T20:47:34;95540.59;;;2.10;65.50
41044;BME280;51680;49.806;18.774;2024-01-15T20:50:36;95540.34;;;2.01;65.77
41044;BME280;51680;49.806;18.774;2024-01-15T20:53:40;95538.63;;;2.01;65.88
41044;BME280;51680;49.806;18.774;2024-01-15T20:56:42;95554.78;;;2.03;65.80
41044;BME280;51680;49.806;18.774;2024-01-15T20:59:45;95546.13;;;2.04;65.74